sensor_id;sensor_type;location;lat;lon;timestamp;P1;durP1;ratioP1;P2;durP2;ratioP2
3601;SDS011;1815;50.950;6.920;2023-07-31T00:02:07;5.20;;;3.10;;
3601;SDS011;1815;50.950;6.920;2023-07-31T00:04:32;4.57;;;2.37;;
3601;SDS011;1815;50.950;6.920;2023-07-31T00:06:58;3.57;;;1.60;;
3601;SDS011;1815;50.950;6.920;2023-07-31T00:09:24;5.00;;;1.77;;
3601;SDS011;1815;50.950;6.920;2023-07-31T00:11:49;5.37;;;2.10;;
3601;SDS011;1815;50.950;6.920;2023-07-31T00:14:15;4.13;;;1.90;;
3601;SDS011;1815;50.950;6.920;2023-07-31T00:16:41;4.13;;;1.73;;
3601;SDS011;1815;50.950;6.920;2023-07-31T00:19:06;4.17;;;1.93;;
3601;SDS011;1815;50.950;6.920;2023-07-31T00:21:32;5.33;;;1.97;;
3601;SDS011;1815;50.950;6.920;2023-07-31T00:23:57;3.60;;;2.10;;
3601;SDS011;1815;50.950;6.920;2023-07-31T00:26:23;5.70;;;2.03;;
3601;SDS011;1815;50.950;6.920;2023-07-31T00:28:49;7.90;;;2.37;;
3601;SDS011;1815;50.950;6.920;2023-07-31T00:31:14;4.93;;;1.50;;
3601;SDS011;1815;50.950;6.920;2023-07-31T00:33:40;5.30;;;2.60;;
3601;SDS011;1815;50.950;6.920;2023-07-31T00:36:06;6.17;;;2.43;;
3601;SDS011;1815;50.950;6.920;2023-07-31T00:38:31;3.93;;;2.43;;
3601;SDS011;1815;50.950;6.920;2023-07-31T00:40:58;5.87;;;2.10;;
3601;SDS011;1815;50.950;6.920;2023-07-31T00:43:25;2.57;;;1.63;;
3601;SDS011;1815;50.950;6.920;2023-07-31T00:45:50;3.00;;;1.90;;
3601;SDS011;1815;50.950;6.920;2023-07-31T00:48:16;3.37;;;1.80;;
3601;SDS011;1815;50.950;6.920;2023-07-31T00:50:42;3.80;;;1.80;;
3601;SDS011;1815;50.950;6.920;2023-07-31T00:53:08;3.40;;;1.70;;
3601;SDS011;1815;50.950;6.920;2023-07-31T00:55:33;4.43;;;2.00;;
3601;SDS011;1815;50.950;6.920;2023-07-31T00:57:59;2.50;;;1.20;;
3601;SDS011;1815;50.950;6.920;2023-07-31T01:00:25;3.10;;;1.40;;
3601;SDS011;1815;50.950;6.920;2023-07-31T01:02:51;2.97;;;1.27;;
3601;SDS011;1815;50.950;6.920;2023-07-31T01:05:18;3.43;;;1.73;;
3601;SDS011;1815;50.950;6.920;2023-07-31T01:11:33;4.00;;;1.77;;
3601;SDS011;1815;50.950;6.920;2023-07-31T01:14:03;3.50;;;1.70;;
3601;SDS011;1815;50.950;6.920;2023-07-31T01:16:29;3.07;;;1.80;;
3601;SDS011;1815;50.950;6.920;2023-07-31T01:18:54;3.67;;;1.47;;
3601;SDS011;1815;50.950;6.920;2023-07-31T01:27:14;5.43;;;2.53;;
3601;SDS011;1815;50.950;6.920;2023-07-31T01:29:43;4.00;;;1.87;;
3601;SDS011;1815;50.950;6.920;2023-07-31T01:32:14;3.87;;;1.50;;
3601;SDS011;1815;50.950;6.920;2023-07-31T01:34:43;7.80;;;2.07;;
3601;SDS011;1815;50.950;6.920;2023-07-31T01:37:10;3.40;;;1.50;;
3601;SDS011;1815;50.950;6.920;2023-07-31T01:39:35;3.60;;;1.60;;
3601;SDS011;1815;50.950;6.920;2023-07-31T01:42:02;6.10;;;2.13;;
3601;SDS011;1815;50.950;6.920;2023-07-31T01:44:28;4.57;;;1.60;;
3601;SDS011;1815;50.950;6.920;2023-07-31T01:46:54;4.27;;;1.70;;
3601;SDS011;1815;50.950;6.920;2023-07-31T01:49:19;3.87;;;1.60;;
3601;SDS011;1815;50.950;6.920;2023-07-31T01:51:45;3.43;;;1.70;;
3601;SDS011;1815;50.950;6.920;2023-07-31T01:54:12;4.07;;;1.60;;
3601;SDS011;1815;50.950;6.920;2023-07-31T01:56:38;4.53;;;1.87;;
3601;SDS011;1815;50.950;6.920;2023-07-31T01:59:03;8.03;;;1.90;;
3601;SDS011;1815;50.950;6.920;2023-07-31T02:01:29;2.73;;;1.40;;
3601;SDS011;1815;50.950;6.920;2023-07-31T02:03:55;5.23;;;1.63;;
3601;SDS011;1815;50.950;6.920;2023-07-31T02:06:21;5.03;;;1.47;;
3601;SDS011;1815;50.950;6.920;2023-07-31T02:08:47;2.83;;;1.47;;
3601;SDS011;1815;50.950;6.920;2023-07-31T02:11:14;3.10;;;1.40;;
3601;SDS011;1815;50.950;6.920;2023-07-31T02:13:39;2.30;;;1.27;;
3601;SDS011;1815;50.950;6.920;2023-07-31T02:16:05;3.40;;;1.53;;
3601;SDS011;1815;50.950;6.920;2023-07-31T02:18:32;3.00;;;1.47;;
3601;SDS011;1815;50.950;6.920;2023-07-31T02:20:57;6.43;;;1.17;;
3601;SDS011;1815;50.950;6.920;2023-07-31T02:23:24;3.93;;;1.83;;
3601;SDS011;1815;50.950;6.920;2023-07-31T02:25:50;3.60;;;1.80;;
3601;SDS011;1815;50.950;6.920;2023-07-31T02:28:16;3.80;;;1.80;;
3601;SDS011;1815;50.950;6.920;2023-07-31T02:30:44;4.70;;;1.50;;
3601;SDS011;1815;50.950;6.920;2023-07-31T02:33:11;4.30;;;1.90;;
3601;SDS011;1815;50.950;6.920;2023-07-31T02:35:37;3.50;;;1.73;;
3601;SDS011;1815;50.950;6.920;2023-07-31T02:38:03;4.20;;;1.60;;
3601;SDS011;1815;50.950;6.920;2023-07-31T02:40:28;3.77;;;1.70;;
3601;SDS011;1815;50.950;6.920;2023-07-31T02:42:54;6.37;;;2.17;;
3601;SDS011;1815;50.950;6.920;2023-07-31T02:45:19;3.43;;;1.63;;
3601;SDS011;1815;50.950;6.920;2023-07-31T02:47:45;6.07;;;1.40;;
3601;SDS011;1815;50.950;6.920;2023-07-31T02:50:11;2.83;;;1.33;;
3601;SDS011;1815;50.950;6.920;2023-07-31T02:52:37;4.40;;;1.63;;
3601;SDS011;1815;50.950;6.920;2023-07-31T02:55:02;3.03;;;1.80;;
3601;SDS011;1815;50.950;6.920;2023-07-31T02:57:28;4.97;;;1.63;;
3601;SDS011;1815;50.950;6.920;2023-07-31T02:59:54;4.93;;;1.80;;
3601;SDS011;1815;50.950;6.920;2023-07-31T03:02:20;4.07;;;1.90;;
3601;SDS011;1815;50.950;6.920;2023-07-31T03:04:46;4.37;;;2.00;;
3601;SDS011;1815;50.950;6.920;2023-07-31T03:07:11;5.53;;;2.30;;
3601;SDS011;1815;50.950;6.920;2023-07-31T03:09:37;5.00;;;1.50;;
3601;SDS011;1815;50.950;6.920;2023-07-31T03:12:03;3.93;;;1.70;;
3601;SDS011;1815;50.950;6.920;2023-07-31T03:14:29;3.83;;;1.50;;
3601;SDS011;1815;50.950;6.920;2023-07-31T03:16:54;2.87;;;1.63;;
3601;SDS011;1815;50.950;6.920;2023-07-31T03:19:20;4.73;;;2.10;;
3601;SDS011;1815;50.950;6.920;2023-07-31T03:21:46;3.63;;;1.80;;
3601;SDS011;1815;50.950;6.920;2023-07-31T03:24:11;6.60;;;2.60;;
3601;SDS011;1815;50.950;6.920;2023-07-31T03:26:37;4.90;;;2.00;;
3601;SDS011;1815;50.950;6.920;2023-07-31T03:29:06;3.27;;;2.00;;
3601;SDS011;1815;50.950;6.920;2023-07-31T03:31:32;3.60;;;1.50;;
3601;SDS011;1815;50.950;6.920;2023-07-31T03:33:58;4.13;;;2.17;;
3601;SDS011;1815;50.950;6.920;2023-07-31T03:36:24;4.30;;;2.03;;
3601;SDS011;1815;50.950;6.920;2023-07-31T03:38:51;3.60;;;2.17;;
3601;SDS011;1815;50.950;6.920;2023-07-31T03:41:17;7.77;;;2.13;;
3601;SDS011;1815;50.950;6.920;2023-07-31T03:43:45;4.80;;;1.73;;
3601;SDS011;1815;50.950;6.920;2023-07-31T03:46:11;5.00;;;2.17;;
3601;SDS011;1815;50.950;6.920;2023-07-31T03:48:37;4.53;;;2.10;;
3601;SDS011;1815;50.950;6.920;2023-07-31T03:51:03;3.20;;;1.70;;
3601;SDS011;1815;50.950;6.920;2023-07-31T03:53:30;6.57;;;2.00;;
3601;SDS011;1815;50.950;6.920;2023-07-31T03:55:56;3.37;;;1.70;;
3601;SDS011;1815;50.950;6.920;2023-07-31T03:58:22;4.63;;;2.20;;
3601;SDS011;1815;50.950;6.920;2023-07-31T04:00:47;3.90;;;2.50;;
3601;SDS011;1815;50.950;6.920;2023-07-31T04:03:13;5.33;;;2.30;;
3601;SDS011;1815;50.950;6.920;2023-07-31T04:05:39;6.57;;;2.27;;
3601;SDS011;1815;50.950;6.920;2023-07-31T04:08:05;5.23;;;2.10;;
3601;SDS011;1815;50.950;6.920;2023-07-31T04:10:30;6.60;;;2.53;;
3601;SDS011;1815;50.950;6.920;2023-07-31T04:12:58;4.93;;;2.40;;
3601;SDS011;1815;50.950;6.920;2023-07-31T04:15:26;6.20;;;2.43;;
3601;SDS011;1815;50.950;6.920;2023-07-31T04:17:51;3.77;;;2.53;;
3601;SDS011;1815;50.950;6.920;2023-07-31T04:20:17;4.20;;;2.13;;
3601;SDS011;1815;50.950;6.920;2023-07-31T04:22:43;3.97;;;1.87;;
3601;SDS011;1815;50.950;6.920;2023-07-31T04:25:09;3.60;;;1.83;;
3601;SDS011;1815;50.950;6.920;2023-07-31T04:27:34;3.40;;;1.90;;
3601;SDS011;1815;50.950;6.920;2023-07-31T04:30:00;3.67;;;2.10;;
3601;SDS011;1815;50.950;6.920;2023-07-31T04:32:26;6.13;;;2.70;;
3601;SDS011;1815;50.950;6.920;2023-07-31T04:34:52;2.70;;;1.80;;
3601;SDS011;1815;50.950;6.920;2023-07-31T04:37:17;3.90;;;2.13;;
3601;SDS011;1815;50.950;6.920;2023-07-31T04:39:43;3.87;;;2.00;;
3601;SDS011;1815;50.950;6.920;2023-07-31T04:42:08;5.87;;;2.77;;
3601;SDS011;1815;50.950;6.920;2023-07-31T04:44:35;3.13;;;1.97;;
3601;SDS011;1815;50.950;6.920;2023-07-31T04:47:00;4.13;;;2.50;;
3601;SDS011;1815;50.950;6.920;2023-07-31T04:49:27;3.90;;;2.53;;
3601;SDS011;1815;50.950;6.920;2023-07-31T04:51:53;4.70;;;2.63;;
3601;SDS011;1815;50.950;6.920;2023-07-31T04:54:19;4.03;;;2.10;;
3601;SDS011;1815;50.950;6.920;2023-07-31T04:56:44;3.30;;;2.10;;
3601;SDS011;1815;50.950;6.920;2023-07-31T04:59:10;2.93;;;1.70;;
3601;SDS011;1815;50.950;6.920;2023-07-31T05:01:36;4.33;;;2.13;;
3601;SDS011;1815;50.950;6.920;2023-07-31T05:04:01;3.20;;;2.33;;
3601;SDS011;1815;50.950;6.920;2023-07-31T05:06:27;4.03;;;1.97;;
3601;SDS011;1815;50.950;6.920;2023-07-31T05:08:53;3.90;;;2.37;;
3601;SDS011;1815;50.950;6.920;2023-07-31T05:11:18;3.37;;;2.37;;
3601;SDS011;1815;50.950;6.920;2023-07-31T05:13:44;2.70;;;1.90;;
3601;SDS011;1815;50.950;6.920;2023-07-31T05:16:10;4.40;;;2.10;;
3601;SDS011;1815;50.950;6.920;2023-07-31T05:18:35;3.67;;;2.03;;
3601;SDS011;1815;50.950;6.920;2023-07-31T05:21:02;8.13;;;2.10;;
3601;SDS011;1815;50.950;6.920;2023-07-31T05:23:27;4.00;;;2.17;;
3601;SDS011;1815;50.950;6.920;2023-07-31T05:25:53;5.70;;;3.03;;
3601;SDS011;1815;50.950;6.920;2023-07-31T05:28:20;4.67;;;2.23;;
3601;SDS011;1815;50.950;6.920;2023-07-31T05:30:46;2.73;;;2.10;;
3601;SDS011;1815;50.950;6.920;2023-07-31T05:33:12;2.43;;;1.43;;
3601;SDS011;1815;50.950;6.920;2023-07-31T05:35:38;4.33;;;1.83;;
3601;SDS011;1815;50.950;6.920;2023-07-31T05:38:03;2.60;;;1.40;;
3601;SDS011;1815;50.950;6.920;2023-07-31T05:40:31;2.40;;;1.33;;
3601;SDS011;1815;50.950;6.920;2023-07-31T05:42:57;4.27;;;2.00;;
3601;SDS011;1815;50.950;6.920;2023-07-31T05:45:25;3.37;;;2.00;;
3601;SDS011;1815;50.950;6.920;2023-07-31T05:47:50;3.73;;;2.10;;
3601;SDS011;1815;50.950;6.920;2023-07-31T05:50:16;3.40;;;2.40;;
3601;SDS011;1815;50.950;6.920;2023-07-31T05:52:42;2.57;;;2.07;;
3601;SDS011;1815;50.950;6.920;2023-07-31T05:55:07;4.43;;;1.47;;
3601;SDS011;1815;50.950;6.920;2023-07-31T05:57:33;4.50;;;2.00;;
3601;SDS011;1815;50.950;6.920;2023-07-31T05:59:59;4.30;;;1.80;;
3601;SDS011;1815;50.950;6.920;2023-07-31T06:02:25;2.87;;;1.30;;
3601;SDS011;1815;50.950;6.920;2023-07-31T06:04:50;2.83;;;1.60;;
3601;SDS011;1815;50.950;6.920;2023-07-31T06:07:16;3.83;;;2.10;;
3601;SDS011;1815;50.950;6.920;2023-07-31T06:09:42;5.20;;;1.90;;
3601;SDS011;1815;50.950;6.920;2023-07-31T06:12:08;3.10;;;1.60;;
3601;SDS011;1815;50.950;6.920;2023-07-31T06:14:34;2.40;;;1.40;;
3601;SDS011;1815;50.950;6.920;2023-07-31T06:16:59;3.20;;;1.83;;
3601;SDS011;1815;50.950;6.920;2023-07-31T06:19:26;4.03;;;2.20;;
3601;SDS011;1815;50.950;6.920;2023-07-31T06:21:51;6.90;;;2.83;;
3601;SDS011;1815;50.950;6.920;2023-07-31T06:24:17;4.63;;;2.30;;
3601;SDS011;1815;50.950;6.920;2023-07-31T06:26:45;4.97;;;2.97;;
3601;SDS011;1815;50.950;6.920;2023-07-31T06:29:11;2.70;;;2.30;;
3601;SDS011;1815;50.950;6.920;2023-07-31T06:31:36;5.00;;;1.43;;
3601;SDS011;1815;50.950;6.920;2023-07-31T06:34:02;2.53;;;1.90;;
3601;SDS011;1815;50.950;6.920;2023-07-31T06:36:28;3.37;;;2.00;;
3601;SDS011;1815;50.950;6.920;2023-07-31T06:38:53;5.53;;;1.80;;
3601;SDS011;1815;50.950;6.920;2023-07-31T06:41:19;2.90;;;1.97;;
3601;SDS011;1815;50.950;6.920;2023-07-31T06:43:46;3.70;;;2.53;;
3601;SDS011;1815;50.950;6.920;2023-07-31T06:46:11;5.43;;;1.87;;
3601;SDS011;1815;50.950;6.920;2023-07-31T06:48:37;3.43;;;2.50;;
3601;SDS011;1815;50.950;6.920;2023-07-31T06:51:02;3.40;;;2.17;;
3601;SDS011;1815;50.950;6.920;2023-07-31T06:53:28;4.60;;;2.03;;
3601;SDS011;1815;50.950;6.920;2023-07-31T06:55:54;3.47;;;2.13;;
3601;SDS011;1815;50.950;6.920;2023-07-31T06:58:20;3.30;;;1.30;;
3601;SDS011;1815;50.950;6.920;2023-07-31T07:00:46;5.03;;;2.57;;
3601;SDS011;1815;50.950;6.920;2023-07-31T07:03:11;3.57;;;2.07;;
3601;SDS011;1815;50.950;6.920;2023-07-31T07:05:40;4.90;;;2.40;;
3601;SDS011;1815;50.950;6.920;2023-07-31T07:08:05;4.93;;;1.90;;
3601;SDS011;1815;50.950;6.920;2023-07-31T07:10:31;3.17;;;1.77;;
3601;SDS011;1815;50.950;6.920;2023-07-31T07:12:57;3.00;;;1.90;;
3601;SDS011;1815;50.950;6.920;2023-07-31T07:15:22;4.43;;;2.20;;
3601;SDS011;1815;50.950;6.920;2023-07-31T07:17:48;3.60;;;2.03;;
3601;SDS011;1815;50.950;6.920;2023-07-31T07:20:14;5.30;;;2.67;;
3601;SDS011;1815;50.950;6.920;2023-07-31T07:22:40;5.17;;;2.40;;
3601;SDS011;1815;50.950;6.920;2023-07-31T07:25:08;7.03;;;2.03;;
3601;SDS011;1815;50.950;6.920;2023-07-31T07:27:34;3.27;;;1.73;;
3601;SDS011;1815;50.950;6.920;2023-07-31T07:30:00;3.70;;;2.07;;
3601;SDS011;1815;50.950;6.920;2023-07-31T07:32:26;3.93;;;1.90;;
3601;SDS011;1815;50.950;6.920;2023-07-31T07:34:52;4.70;;;2.33;;
3601;SDS011;1815;50.950;6.920;2023-07-31T07:37:17;4.23;;;2.10;;
3601;SDS011;1815;50.950;6.920;2023-07-31T07:39:43;5.37;;;3.07;;
3601;SDS011;1815;50.950;6.920;2023-07-31T07:42:09;5.60;;;2.20;;
3601;SDS011;1815;50.950;6.920;2023-07-31T07:44:35;4.40;;;1.83;;
3601;SDS011;1815;50.950;6.920;2023-07-31T07:47:01;3.50;;;2.03;;
3601;SDS011;1815;50.950;6.920;2023-07-31T07:49:26;3.63;;;2.33;;
3601;SDS011;1815;50.950;6.920;2023-07-31T07:51:52;5.20;;;1.77;;
3601;SDS011;1815;50.950;6.920;2023-07-31T07:54:18;2.70;;;2.00;;
3601;SDS011;1815;50.950;6.920;2023-07-31T07:56:46;2.80;;;1.73;;
3601;SDS011;1815;50.950;6.920;2023-07-31T07:59:12;3.30;;;1.97;;
3601;SDS011;1815;50.950;6.920;2023-07-31T08:01:37;5.43;;;2.57;;
3601;SDS011;1815;50.950;6.920;2023-07-31T08:04:03;4.40;;;2.60;;
3601;SDS011;1815;50.950;6.920;2023-07-31T08:06:29;3.80;;;2.47;;
3601;SDS011;1815;50.950;6.920;2023-07-31T08:08:55;4.00;;;2.07;;
3601;SDS011;1815;50.950;6.920;2023-07-31T08:11:21;4.70;;;2.50;;
3601;SDS011;1815;50.950;6.920;2023-07-31T08:13:48;4.50;;;1.70;;
3601;SDS011;1815;50.950;6.920;2023-07-31T08:16:15;3.10;;;1.60;;
3601;SDS011;1815;50.950;6.920;2023-07-31T08:18:41;2.60;;;1.40;;
3601;SDS011;1815;50.950;6.920;2023-07-31T08:21:08;4.93;;;2.37;;
3601;SDS011;1815;50.950;6.920;2023-07-31T08:23:33;3.73;;;1.50;;
3601;SDS011;1815;50.950;6.920;2023-07-31T08:25:59;3.33;;;1.67;;
3601;SDS011;1815;50.950;6.920;2023-07-31T08:28:26;3.03;;;1.73;;
3601;SDS011;1815;50.950;6.920;2023-07-31T08:30:52;5.90;;;1.57;;
3601;SDS011;1815;50.950;6.920;2023-07-31T08:33:17;2.80;;;1.50;;
3601;SDS011;1815;50.950;6.920;2023-07-31T08:35:43;3.00;;;1.50;;
3601;SDS011;1815;50.950;6.920;2023-07-31T08:38:08;2.20;;;1.20;;
3601;SDS011;1815;50.950;6.920;2023-07-31T08:40:37;3.80;;;1.30;;
3601;SDS011;1815;50.950;6.920;2023-07-31T08:43:03;3.00;;;1.33;;
3601;SDS011;1815;50.950;6.920;2023-07-31T08:45:29;6.27;;;1.70;;
3601;SDS011;1815;50.950;6.920;2023-07-31T08:47:56;3.43;;;1.73;;
3601;SDS011;1815;50.950;6.920;2023-07-31T08:50:24;2.00;;;1.20;;
3601;SDS011;1815;50.950;6.920;2023-07-31T08:52:51;3.03;;;1.43;;
3601;SDS011;1815;50.950;6.920;2023-07-31T08:55:18;4.30;;;1.70;;
3601;SDS011;1815;50.950;6.920;2023-07-31T08:57:50;5.13;;;1.47;;
3601;SDS011;1815;50.950;6.920;2023-07-31T09:00:18;4.30;;;2.00;;
3601;SDS011;1815;50.950;6.920;2023-07-31T09:05:28;3.47;;;1.50;;
3601;SDS011;1815;50.950;6.920;2023-07-31T09:07:55;3.13;;;1.17;;
3601;SDS011;1815;50.950;6.920;2023-07-31T09:10:22;3.00;;;1.70;;
3601;SDS011;1815;50.950;6.920;2023-07-31T09:12:48;2.60;;;1.37;;
3601;SDS011;1815;50.950;6.920;2023-07-31T09:15:16;2.50;;;1.30;;
3601;SDS011;1815;50.950;6.920;2023-07-31T09:17:42;5.33;;;2.13;;
3601;SDS011;1815;50.950;6.920;2023-07-31T09:20:20;2.30;;;1.50;;
3601;SDS011;1815;50.950;6.920;2023-07-31T09:22:48;2.37;;;1.50;;
3601;SDS011;1815;50.950;6.920;2023-07-31T09:25:20;1.63;;;1.00;;
3601;SDS011;1815;50.950;6.920;2023-07-31T09:30:17;3.70;;;1.17;;
3601;SDS011;1815;50.950;6.920;2023-07-31T09:32:44;3.17;;;1.20;;
3601;SDS011;1815;50.950;6.920;2023-07-31T09:35:27;2.83;;;1.10;;
3601;SDS011;1815;50.950;6.920;2023-07-31T09:37:53;2.80;;;1.10;;
3601;SDS011;1815;50.950;6.920;2023-07-31T09:40:28;6.30;;;1.40;;
3601;SDS011;1815;50.950;6.920;2023-07-31T09:42:56;3.20;;;1.70;;
3601;SDS011;1815;50.950;6.920;2023-07-31T09:45:23;1.97;;;1.30;;
3601;SDS011;1815;50.950;6.920;2023-07-31T09:47:50;1.70;;;1.00;;
3601;SDS011;1815;50.950;6.920;2023-07-31T09:50:16;2.60;;;1.00;;
3601;SDS011;1815;50.950;6.920;2023-07-31T09:52:42;2.40;;;1.20;;
3601;SDS011;1815;50.950;6.920;2023-07-31T09:55:08;2.70;;;1.30;;
3601;SDS011;1815;50.950;6.920;2023-07-31T09:57:39;2.60;;;1.20;;
3601;SDS011;1815;50.950;6.920;2023-07-31T10:00:09;2.30;;;1.20;;
3601;SDS011;1815;50.950;6.920;2023-07-31T10:02:40;3.17;;;1.60;;
3601;SDS011;1815;50.950;6.920;2023-07-31T10:05:07;2.70;;;1.17;;
3601;SDS011;1815;50.950;6.920;2023-07-31T10:07:36;4.40;;;1.10;;
3601;SDS011;1815;50.950;6.920;2023-07-31T10:10:07;2.00;;;1.00;;
3601;SDS011;1815;50.950;6.920;2023-07-31T10:12:34;2.20;;;1.10;;
3601;SDS011;1815;50.950;6.920;2023-07-31T10:15:00;2.03;;;1.43;;
3601;SDS011;1815;50.950;6.920;2023-07-31T10:17:27;3.07;;;1.20;;
3601;SDS011;1815;50.950;6.920;2023-07-31T10:19:54;1.90;;;1.10;;
3601;SDS011;1815;50.950;6.920;2023-07-31T10:22:24;3.93;;;2.10;;
3601;SDS011;1815;50.950;6.920;2023-07-31T10:24:50;4.50;;;1.50;;
3601;SDS011;1815;50.950;6.920;2023-07-31T10:27:19;4.50;;;2.20;;
3601;SDS011;1815;50.950;6.920;2023-07-31T10:29:45;2.60;;;2.00;;
3601;SDS011;1815;50.950;6.920;2023-07-31T10:32:13;3.50;;;1.70;;
3601;SDS011;1815;50.950;6.920;2023-07-31T10:34:40;2.27;;;1.30;;
3601;SDS011;1815;50.950;6.920;2023-07-31T10:40:11;2.60;;;1.50;;
3601;SDS011;1815;50.950;6.920;2023-07-31T10:42:45;2.60;;;1.30;;
3601;SDS011;1815;50.950;6.920;2023-07-31T10:47:57;2.60;;;1.43;;
3601;SDS011;1815;50.950;6.920;2023-07-31T10:50:31;2.47;;;1.47;;
3601;SDS011;1815;50.950;6.920;2023-07-31T10:53:24;3.17;;;1.70;;
3601;SDS011;1815;50.950;6.920;2023-07-31T10:56:02;2.20;;;1.00;;
3601;SDS011;1815;50.950;6.920;2023-07-31T10:58:30;2.40;;;1.20;;
3601;SDS011;1815;50.950;6.920;2023-07-31T11:01:00;4.10;;;2.03;;
3601;SDS011;1815;50.950;6.920;2023-07-31T11:06:14;3.00;;;1.67;;
3601;SDS011;1815;50.950;6.920;2023-07-31T11:08:41;2.73;;;1.40;;
3601;SDS011;1815;50.950;6.920;2023-07-31T11:11:15;2.50;;;0.80;;
3601;SDS011;1815;50.950;6.920;2023-07-31T11:13:50;2.40;;;1.00;;
3601;SDS011;1815;50.950;6.920;2023-07-31T11:16:21;2.57;;;1.57;;
3601;SDS011;1815;50.950;6.920;2023-07-31T11:18:51;3.33;;;1.23;;
3601;SDS011;1815;50.950;6.920;2023-07-31T11:21:19;2.07;;;1.10;;
3601;SDS011;1815;50.950;6.920;2023-07-31T11:23:48;2.67;;;1.30;;
3601;SDS011;1815;50.950;6.920;2023-07-31T11:26:18;2.43;;;1.10;;
3601;SDS011;1815;50.950;6.920;2023-07-31T11:28:48;2.03;;;0.80;;
3601;SDS011;1815;50.950;6.920;2023-07-31T11:31:14;3.23;;;0.90;;
3601;SDS011;1815;50.950;6.920;2023-07-31T11:33:40;2.20;;;0.80;;
3601;SDS011;1815;50.950;6.920;2023-07-31T11:36:14;1.50;;;0.60;;
3601;SDS011;1815;50.950;6.920;2023-07-31T11:38:43;2.73;;;1.20;;
3601;SDS011;1815;50.950;6.920;2023-07-31T11:41:09;2.90;;;1.00;;
3601;SDS011;1815;50.950;6.920;2023-07-31T11:43:35;2.00;;;0.60;;
3601;SDS011;1815;50.950;6.920;2023-07-31T11:46:03;1.40;;;0.60;;
3601;SDS011;1815;50.950;6.920;2023-07-31T11:48:32;1.83;;;0.93;;
3601;SDS011;1815;50.950;6.920;2023-07-31T11:51:01;1.40;;;0.60;;
3601;SDS011;1815;50.950;6.920;2023-07-31T11:53:31;2.63;;;0.60;;
3601;SDS011;1815;50.950;6.920;2023-07-31T11:56:06;2.23;;;0.60;;
3601;SDS011;1815;50.950;6.920;2023-07-31T11:58:34;1.47;;;0.57;;
3601;SDS011;1815;50.950;6.920;2023-07-31T12:01:00;1.40;;;0.50;;
3601;SDS011;1815;50.950;6.920;2023-07-31T12:03:27;1.30;;;0.40;;
3601;SDS011;1815;50.950;6.920;2023-07-31T12:05:53;4.57;;;0.50;;
3601;SDS011;1815;50.950;6.920;2023-07-31T12:08:22;1.80;;;0.57;;
3601;SDS011;1815;50.950;6.920;2023-07-31T12:10:52;1.40;;;0.70;;
3601;SDS011;1815;50.950;6.920;2023-07-31T12:13:22;1.40;;;0.60;;
3601;SDS011;1815;50.950;6.920;2023-07-31T12:15:53;1.80;;;0.90;;
3601;SDS011;1815;50.950;6.920;2023-07-31T12:18:21;2.17;;;1.17;;
3601;SDS011;1815;50.950;6.920;2023-07-31T12:20:48;1.63;;;0.83;;
3601;SDS011;1815;50.950;6.920;2023-07-31T12:23:21;1.50;;;0.70;;
3601;SDS011;1815;50.950;6.920;2023-07-31T12:28:26;2.13;;;0.90;;
3601;SDS011;1815;50.950;6.920;2023-07-31T12:30:52;1.67;;;0.97;;
3601;SDS011;1815;50.950;6.920;2023-07-31T12:33:33;2.80;;;2.00;;
3601;SDS011;1815;50.950;6.920;2023-07-31T12:36:08;2.90;;;2.20;;
3601;SDS011;1815;50.950;6.920;2023-07-31T12:38:37;4.40;;;3.30;;
3601;SDS011;1815;50.950;6.920;2023-07-31T12:41:03;2.80;;;1.67;;
3601;SDS011;1815;50.950;6.920;2023-07-31T12:43:31;3.43;;;1.60;;
3601;SDS011;1815;50.950;6.920;2023-07-31T12:45:57;2.90;;;1.90;;
3601;SDS011;1815;50.950;6.920;2023-07-31T12:48:23;3.00;;;1.90;;
3601;SDS011;1815;50.950;6.920;2023-07-31T12:50:48;2.20;;;1.37;;
3601;SDS011;1815;50.950;6.920;2023-07-31T12:53:17;3.90;;;3.33;;
3601;SDS011;1815;50.950;6.920;2023-07-31T12:55:42;5.80;;;3.90;;
3601;SDS011;1815;50.950;6.920;2023-07-31T12:58:09;4.17;;;2.90;;
3601;SDS011;1815;50.950;6.920;2023-07-31T13:00:34;3.03;;;2.10;;
3601;SDS011;1815;50.950;6.920;2023-07-31T13:03:00;2.13;;;1.47;;
3601;SDS011;1815;50.950;6.920;2023-07-31T13:05:26;2.13;;;1.40;;
3601;SDS011;1815;50.950;6.920;2023-07-31T13:07:53;1.93;;;1.23;;
3601;SDS011;1815;50.950;6.920;2023-07-31T13:10:19;1.97;;;1.27;;
3601;SDS011;1815;50.950;6.920;2023-07-31T13:12:45;1.80;;;1.17;;
3601;SDS011;1815;50.950;6.920;2023-07-31T13:15:11;1.93;;;0.93;;
3601;SDS011;1815;50.950;6.920;2023-07-31T13:17:37;3.63;;;1.17;;
3601;SDS011;1815;50.950;6.920;2023-07-31T13:20:04;3.00;;;1.47;;
3601;SDS011;1815;50.950;6.920;2023-07-31T13:22:30;3.17;;;1.70;;
3601;SDS011;1815;50.950;6.920;2023-07-31T13:24:56;3.37;;;1.57;;
3601;SDS011;1815;50.950;6.920;2023-07-31T13:27:21;2.10;;;1.10;;
3601;SDS011;1815;50.950;6.920;2023-07-31T13:29:48;2.90;;;1.30;;
3601;SDS011;1815;50.950;6.920;2023-07-31T13:32:15;4.37;;;1.37;;
3601;SDS011;1815;50.950;6.920;2023-07-31T13:34:42;1.80;;;1.10;;
3601;SDS011;1815;50.950;6.920;2023-07-31T13:37:08;2.10;;;1.10;;
3601;SDS011;1815;50.950;6.920;2023-07-31T13:39:33;2.37;;;1.37;;
3601;SDS011;1815;50.950;6.920;2023-07-31T13:42:01;2.03;;;1.20;;
3601;SDS011;1815;50.950;6.920;2023-07-31T13:44:28;2.00;;;1.10;;
3601;SDS011;1815;50.950;6.920;2023-07-31T13:46:53;2.10;;;1.40;;
3601;SDS011;1815;50.950;6.920;2023-07-31T13:49:19;2.07;;;1.20;;
3601;SDS011;1815;50.950;6.920;2023-07-31T13:51:45;2.33;;;0.90;;
3601;SDS011;1815;50.950;6.920;2023-07-31T13:54:11;2.83;;;1.20;;
3601;SDS011;1815;50.950;6.920;2023-07-31T13:56:37;2.57;;;1.50;;
3601;SDS011;1815;50.950;6.920;2023-07-31T13:59:03;2.10;;;1.00;;
3601;SDS011;1815;50.950;6.920;2023-07-31T14:01:29;1.97;;;1.20;;
3601;SDS011;1815;50.950;6.920;2023-07-31T14:03:56;2.40;;;1.33;;
3601;SDS011;1815;50.950;6.920;2023-07-31T14:06:22;1.80;;;1.00;;
3601;SDS011;1815;50.950;6.920;2023-07-31T14:08:48;2.30;;;1.27;;
3601;SDS011;1815;50.950;6.920;2023-07-31T14:11:13;3.43;;;0.90;;
3601;SDS011;1815;50.950;6.920;2023-07-31T14:13:39;2.20;;;1.30;;
3601;SDS011;1815;50.950;6.920;2023-07-31T14:16:05;1.97;;;1.07;;
3601;SDS011;1815;50.950;6.920;2023-07-31T14:18:31;1.60;;;0.90;;
3601;SDS011;1815;50.950;6.920;2023-07-31T14:20:57;1.57;;;0.90;;
3601;SDS011;1815;50.950;6.920;2023-07-31T14:23:23;1.83;;;1.10;;
3601;SDS011;1815;50.950;6.920;2023-07-31T14:25:48;2.03;;;1.20;;
3601;SDS011;1815;50.950;6.920;2023-07-31T14:28:14;1.90;;;1.03;;
3601;SDS011;1815;50.950;6.920;2023-07-31T14:30:40;2.17;;;1.10;;
3601;SDS011;1815;50.950;6.920;2023-07-31T14:33:05;2.27;;;0.90;;
3601;SDS011;1815;50.950;6.920;2023-07-31T14:35:31;2.00;;;1.10;;
3601;SDS011;1815;50.950;6.920;2023-07-31T14:37:57;2.60;;;1.13;;
3601;SDS011;1815;50.950;6.920;2023-07-31T14:40:23;1.67;;;0.90;;
3601;SDS011;1815;50.950;6.920;2023-07-31T14:42:48;2.23;;;1.20;;
3601;SDS011;1815;50.950;6.920;2023-07-31T14:45:14;2.97;;;1.80;;
3601;SDS011;1815;50.950;6.920;2023-07-31T14:47:40;2.50;;;1.33;;
3601;SDS011;1815;50.950;6.920;2023-07-31T14:50:05;2.50;;;1.40;;
3601;SDS011;1815;50.950;6.920;2023-07-31T14:52:31;2.97;;;2.03;;
3601;SDS011;1815;50.950;6.920;2023-07-31T14:54:57;2.20;;;1.50;;
3601;SDS011;1815;50.950;6.920;2023-07-31T14:57:23;2.97;;;1.50;;
3601;SDS011;1815;50.950;6.920;2023-07-31T14:59:48;2.60;;;1.53;;
3601;SDS011;1815;50.950;6.920;2023-07-31T15:02:14;3.70;;;2.03;;
3601;SDS011;1815;50.950;6.920;2023-07-31T15:04:40;2.63;;;1.20;;
3601;SDS011;1815;50.950;6.920;2023-07-31T15:07:06;4.87;;;2.03;;
3601;SDS011;1815;50.950;6.920;2023-07-31T15:09:32;2.23;;;1.40;;
3601;SDS011;1815;50.950;6.920;2023-07-31T15:11:58;2.57;;;1.53;;
3601;SDS011;1815;50.950;6.920;2023-07-31T15:14:24;2.77;;;1.53;;
3601;SDS011;1815;50.950;6.920;2023-07-31T15:16:50;2.07;;;1.20;;
3601;SDS011;1815;50.950;6.920;2023-07-31T15:19:16;2.63;;;1.50;;
3601;SDS011;1815;50.950;6.920;2023-07-31T15:21:42;4.10;;;1.97;;
3601;SDS011;1815;50.950;6.920;2023-07-31T15:24:08;2.73;;;2.00;;
3601;SDS011;1815;50.950;6.920;2023-07-31T15:26:34;3.03;;;1.90;;
3601;SDS011;1815;50.950;6.920;2023-07-31T15:29:05;3.17;;;1.77;;
3601;SDS011;1815;50.950;6.920;2023-07-31T15:31:39;2.63;;;1.90;;
3601;SDS011;1815;50.950;6.920;2023-07-31T15:34:05;3.97;;;2.13;;
3601;SDS011;1815;50.950;6.920;2023-07-31T15:36:31;2.90;;;2.20;;
3601;SDS011;1815;50.950;6.920;2023-07-31T15:38:57;3.27;;;2.67;;